Athens, Wisconsin
Current Conditions -  °F | °C
As of 1:55 PM on Thursday 30 Oct 2014 (Local Time) from KMDZ Reporting Station
Overcast Overcast  
Wind Chill: 38°   Ceiling: 6500
Heat Index: 42°   Visibility: 10mi
Dew Point: 33°   Wind: 6mph
Humidity: 71%   Direction: 300°WNW
Pressure: 30.04"   Gusts: NA
Location:  45.03°N, 90.07°W
Report Text: KMDZ 301855Z AUTO 30005KT 10SM OVC065 05/00 A3004 RMK AO2 T00530004
Loading
Personal Weather Stations






























Interactive Weather Map New forecast layout! Learn more

10-Day Weather Forecast

Advertisements
Track Severe Weather on mobile